createdAt,value
2022-11-18T00:00:32.798Z,99686.92
2022-11-18T00:05:39.470Z,99687.08
2022-11-18T00:10:45.135Z,99687.56
2022-11-18T00:15:59.552Z,99682.60
2022-11-18T00:21:07.868Z,99677.64
2022-11-18T00:26:14.695Z,99676.73
2022-11-18T00:31:20.287Z,99675.35
2022-11-18T00:36:26.045Z,99672.95
2022-11-18T00:41:50.798Z,99670.24
2022-11-18T00:46:56.805Z,99666.41
2022-11-18T00:52:02.784Z,99662.87
2022-11-18T00:57:08.739Z,99657.27
2022-11-18T01:02:14.486Z,99658.25
2022-11-18T01:07:20.221Z,99658.92
2022-11-18T01:12:46.297Z,99654.79
2022-11-18T01:17:53.635Z,99655.94
2022-11-18T01:22:59.431Z,99650.63
2022-11-18T01:28:05.198Z,99643.64
2022-11-18T01:33:12.115Z,99645.17
2022-11-18T01:38:17.692Z,99643.13
2022-11-18T01:43:24.346Z,99640.08
2022-11-18T01:48:34.330Z,99638.45
2022-11-18T01:53:45.443Z,99634.06
2022-11-18T01:58:55.602Z,99626.41
2022-11-18T02:04:01.490Z,99624.70
2022-11-18T02:09:07.577Z,99623.49
2022-11-18T02:14:13.606Z,99617.85
2022-11-18T02:19:38.742Z,99623.30
2022-11-18T02:24:56.487Z,99624.45
2022-11-18T02:30:05.905Z,99624.59
2022-11-18T02:35:18.781Z,99622.52
2022-11-18T02:40:29.309Z,99618.48
2022-11-18T02:45:37.314Z,99618.38
2022-11-18T02:50:44.972Z,99618.09
2022-11-18T02:55:53.238Z,99617.42
2022-11-18T03:01:01.489Z,99621.14
2022-11-18T03:06:19.917Z,99617.34
2022-11-18T03:11:28.383Z,99613.20
2022-11-18T03:16:38.317Z,99609.05
2022-11-18T03:21:51.643Z,99603.60
2022-11-18T03:27:04.899Z,99603.82
2022-11-18T03:32:17.782Z,99602.29
2022-11-18T03:37:26.302Z,99604.49
2022-11-18T03:42:36.367Z,99604.63
2022-11-18T03:47:45.482Z,99600.13
2022-11-18T03:52:53.397Z,99594.96
2022-11-18T03:58:06.036Z,99588.30
2022-11-18T04:03:13.070Z,99593.23
2022-11-18T04:08:27.485Z,99596.64
2022-11-18T04:13:36.716Z,99595.73
2022-11-18T04:18:42.707Z,99600.30
2022-11-18T04:23:48.501Z,99606.05
2022-11-18T04:28:54.403Z,99605.34
2022-11-18T04:34:00.354Z,99600.09
2022-11-18T04:39:07.272Z,99599.73
2022-11-18T04:44:13.551Z,99601.25
2022-11-18T04:49:19.665Z,99596.40
2022-11-18T04:54:26.911Z,99592.40
2022-11-18T04:59:32.727Z,99589.65
2022-11-18T05:04:38.514Z,99594.91
2022-11-18T05:09:44.415Z,99590.51
2022-11-18T05:14:51.120Z,99590.20
2022-11-18T05:19:56.998Z,99591.73
2022-11-18T05:25:02.694Z,99590.19
2022-11-18T05:30:10.319Z,99588.35
2022-11-18T05:35:16.282Z,99589.59
2022-11-18T05:40:22.023Z,99587.29
2022-11-18T05:45:27.640Z,99585.00
2022-11-18T05:50:35.278Z,99581.40
2022-11-18T05:55:44.416Z,99583.94
2022-11-18T06:00:53.739Z,99586.20
2022-11-18T06:06:03.363Z,99586.95
2022-11-18T06:11:14.822Z,99590.08
2022-11-18T06:16:23.709Z,99588.89
2022-11-18T06:21:29.978Z,99588.34
2022-11-18T06:26:36.035Z,99587.14
2022-11-18T06:31:41.978Z,99594.09
2022-11-18T06:36:47.771Z,99596.09
2022-11-18T06:41:55.211Z,99593.90
2022-11-18T06:47:02.526Z,99598.91
2022-11-18T06:52:08.326Z,99605.77
2022-11-18T06:57:14.234Z,99604.22
2022-11-18T07:02:19.921Z,99608.52
2022-11-18T07:07:25.781Z,99610.06
2022-11-18T07:12:31.799Z,99614.17
2022-11-18T07:17:37.643Z,99614.73
2022-11-18T07:22:43.354Z,99614.13
2022-11-18T07:27:48.955Z,99616.29
2022-11-18T07:32:54.779Z,99616.08
2022-11-18T07:38:00.540Z,99620.72
2022-11-18T07:43:07.278Z,99623.74
2022-11-18T07:48:13.582Z,99624.49
2022-11-18T07:53:19.254Z,99625.89
2022-11-18T07:58:25.186Z,99626.28
2022-11-18T08:03:30.783Z,99631.73
2022-11-18T08:08:37.130Z,99633.95
2022-11-18T08:13:42.920Z,99636.83
2022-11-18T08:18:48.946Z,99639.70
2022-11-18T08:23:56.397Z,99647.06
2022-11-18T08:29:02.226Z,99653.93
2022-11-18T08:34:08.935Z,99655.74
2022-11-18T08:39:15.197Z,99662.73
2022-11-18T08:44:20.975Z,99668.75
2022-11-18T08:49:32.189Z,99676.84
2022-11-18T08:54:38.523Z,99681.45
2022-11-18T08:59:44.423Z,99679.23
2022-11-18T09:04:50.884Z,99683.33
2022-11-18T09:09:56.533Z,99688.86
2022-11-18T09:15:18.380Z,99687.20
2022-11-18T09:20:24.653Z,99689.70
2022-11-18T09:25:30.302Z,99689.73
2022-11-18T09:30:36.095Z,99684.77
2022-11-18T09:35:45.184Z,99685.27
2022-11-18T09:41:04.551Z,99679.46
2022-11-18T09:46:21.991Z,99675.23
2022-11-18T09:51:35.188Z,99665.00
2022-11-18T09:56:41.785Z,99661.63
2022-11-18T10:01:48.899Z,99657.94
2022-11-18T10:06:55.194Z,99657.95
2022-11-18T10:12:16.570Z,99666.61
2022-11-18T10:17:33.196Z,99669.61
2022-11-18T10:22:44.426Z,99673.20
2022-11-18T10:27:51.682Z,99673.91
2022-11-18T10:32:59.890Z,99671.43
2022-11-18T10:38:16.784Z,99673.15
2022-11-18T10:43:45.327Z,99679.20
2022-11-18T10:49:14.210Z,99683.21
2022-11-18T10:54:22.622Z,99691.06
2022-11-18T10:59:33.701Z,99695.06
2022-11-18T11:04:40.883Z,99695.64
2022-11-18T11:09:58.767Z,99699.52
2022-11-18T11:15:09.189Z,99705.03
2022-11-18T11:20:19.260Z,99707.42
2022-11-18T11:31:13.154Z,99706.36
2022-11-18T11:37:32.494Z,99705.44
2022-11-18T11:42:50.663Z,99706.73
2022-11-18T11:48:24.502Z,99707.13
2022-11-18T11:53:54.873Z,99705.45
2022-11-18T11:59:19.301Z,99706.31
2022-11-18T12:04:39.736Z,99706.67
2022-11-18T12:09:58.712Z,99705.98
2022-11-18T12:15:16.824Z,99704.27
2022-11-18T12:20:45.169Z,99702.19
2022-11-18T12:26:04.198Z,99707.46
2022-11-18T12:31:31.958Z,99714.95
2022-11-18T12:36:39.515Z,99713.84
2022-11-18T12:42:17.941Z,99719.30
2022-11-18T12:47:54.669Z,99723.05
2022-11-18T12:53:00.311Z,99718.31
2022-11-18T12:58:24.212Z,99717.14
2022-11-18T13:03:30.577Z,99716.98
2022-11-18T13:08:37.037Z,99715.08
2022-11-18T13:13:44.177Z,99713.37
2022-11-18T13:18:52.080Z,99714.40
2022-11-18T13:24:02.597Z,99716.23
2022-11-18T13:29:27.067Z,99717.38
2022-11-18T13:34:47.095Z,99720.08
2022-11-18T13:39:53.593Z,99728.73
2022-11-18T13:45:00.628Z,99727.48
2022-11-18T13:50:16.859Z,99733.36
2022-11-18T13:55:25.159Z,99737.21
2022-11-18T14:00:34.657Z,99737.14
2022-11-18T14:05:41.653Z,99742.24
2022-11-18T14:10:47.522Z,99750.27
2022-11-18T14:15:54.614Z,99745.56
2022-11-18T14:21:01.684Z,99749.94
2022-11-18T14:26:08.167Z,99757.40
2022-11-18T14:31:26.144Z,99761.13
2022-11-18T14:36:32.151Z,99766.19
2022-11-18T14:41:47.226Z,99770.04
2022-11-18T14:46:57.216Z,99776.63
2022-11-18T14:52:04.623Z,99777.45
2022-11-18T14:57:17.165Z,99780.87
2022-11-18T15:02:23.036Z,99785.02
2022-11-18T15:07:30.218Z,99791.29
2022-11-18T15:12:37.592Z,99799.41
2022-11-18T15:17:43.903Z,99804.67
2022-11-18T15:22:49.816Z,99813.39
2022-11-18T15:27:55.402Z,99820.73
2022-11-18T15:33:01.025Z,99827.76
2022-11-18T15:38:06.797Z,99832.89
2022-11-18T15:43:12.462Z,99842.23
2022-11-18T15:48:18.244Z,99845.31
2022-11-18T15:53:23.945Z,99851.36
2022-11-18T15:58:34.534Z,99861.45
2022-11-18T16:03:41.883Z,99867.94
2022-11-18T16:08:47.844Z,99879.23
2022-11-18T16:13:53.568Z,99888.30
2022-11-18T16:19:01.308Z,99893.27
2022-11-18T16:24:10.738Z,99896.53
2022-11-18T16:29:18.552Z,99901.13
2022-11-18T16:34:27.121Z,99906.02
2022-11-18T16:39:32.949Z,99912.00
2022-11-18T16:44:38.840Z,99911.65
2022-11-18T16:49:44.932Z,99915.05
2022-11-18T16:54:51.272Z,99913.16
2022-11-18T16:59:57.073Z,99914.03
2022-11-18T17:05:02.972Z,99914.38
2022-11-18T17:10:20.219Z,99912.48
2022-11-18T17:15:25.992Z,99914.13
2022-11-18T17:20:31.796Z,99919.28
2022-11-18T17:25:39.851Z,99924.89
2022-11-18T17:30:49.910Z,99925.55
2022-11-18T17:36:03.867Z,99928.09
2022-11-18T17:41:31.372Z,99928.23
2022-11-18T17:46:38.419Z,99928.98
2022-11-18T17:51:46.209Z,99927.70
2022-11-18T17:56:52.566Z,99923.04
2022-11-18T18:01:59.909Z,99921.60
2022-11-18T18:07:06.605Z,99920.11
2022-11-18T18:12:30.881Z,99920.43
2022-11-18T18:17:37.268Z,99924.17
2022-11-18T18:22:43.022Z,99925.30
2022-11-18T18:27:49.000Z,99929.05
2022-11-18T18:32:54.648Z,99930.95
2022-11-18T18:38:01.385Z,99934.28
2022-11-18T18:43:06.983Z,99935.53
2022-11-18T18:48:12.632Z,99937.85
2022-11-18T18:53:18.581Z,99942.05
2022-11-18T18:58:24.185Z,99953.53
2022-11-18T19:03:30.043Z,99955.69
2022-11-18T19:08:35.776Z,99961.09
2022-11-18T19:13:41.769Z,99966.83
2022-11-18T19:18:47.833Z,99964.48
2022-11-18T19:23:55.405Z,99971.92
2022-11-18T19:29:01.377Z,99976.90
2022-11-18T19:34:07.210Z,99981.48
2022-11-18T19:39:13.077Z,99982.59
2022-11-18T19:44:19.088Z,99990.44
2022-11-18T19:49:24.750Z,99993.83
2022-11-18T19:54:30.787Z,99998.71
2022-11-18T19:59:36.438Z,100004.64
2022-11-18T20:05:02.015Z,100001.97
2022-11-18T20:10:09.972Z,99997.30
2022-11-18T20:15:15.817Z,99999.09
2022-11-18T20:20:22.096Z,100001.63
2022-11-18T20:25:27.980Z,100002.26
2022-11-18T20:30:33.701Z,100000.67
2022-11-18T20:35:39.313Z,100008.48
2022-11-18T20:40:45.195Z,100006.30
2022-11-18T20:45:57.729Z,100010.59
2022-11-18T20:51:06.613Z,100013.09
2022-11-18T20:56:14.140Z,100016.61
2022-11-18T21:01:21.901Z,100025.43
2022-11-18T21:06:29.526Z,100025.31
2022-11-18T21:11:36.942Z,100027.84
2022-11-18T21:16:43.393Z,100030.22
2022-11-18T21:21:50.962Z,100036.92
2022-11-18T21:26:57.949Z,100044.63
2022-11-18T21:32:03.911Z,100048.44
2022-11-18T21:37:09.668Z,100052.23
2022-11-18T21:42:15.274Z,100053.65
2022-11-18T21:47:20.892Z,100053.20
2022-11-18T21:52:26.816Z,100055.26
2022-11-18T21:57:32.501Z,100055.73
2022-11-18T22:02:38.639Z,100062.56
2022-11-18T22:07:44.257Z,100056.20
2022-11-18T22:12:51.564Z,100061.03
2022-11-18T22:17:58.113Z,100060.77
2022-11-18T22:23:05.045Z,100064.83
2022-11-18T22:28:11.077Z,100062.89
2022-11-18T22:33:16.853Z,100064.26
2022-11-18T22:38:22.480Z,100066.19
2022-11-18T22:43:28.969Z,100059.36
2022-11-18T22:48:35.296Z,100070.86
2022-11-18T22:53:41.049Z,100070.27
2022-11-18T22:58:46.892Z,100068.95
2022-11-18T23:03:54.124Z,100067.55
2022-11-18T23:08:59.920Z,100067.06
2022-11-18T23:14:07.947Z,100068.76
2022-11-18T23:19:15.520Z,100063.64
2022-11-18T23:24:21.233Z,100064.02
2022-11-18T23:29:26.893Z,100066.02
2022-11-18T23:34:33.080Z,100064.02
2022-11-18T23:39:39.138Z,100063.37
2022-11-18T23:44:50.087Z,100068.71
2022-11-18T23:49:55.793Z,100063.98
2022-11-18T23:55:01.624Z,100062.41
